Time;durP1;ratioP1;P1;durP2;ratioP2;P2;SDS_P1;SDS_P2;PMS_P1;PMS_P2;Temp;Humidity;BMP_temperature;BMP_pressure;BME280_temperature;BME280_humidity;BME280_pressure;Samples;Min_cycle;Max_cycle;Signal;HPM_P1;HPM_P2
2021/06/06 00:01:36;;;;;;;10.75;9.45;;;15.70;99.90;;;;;;5036040;28;20246;-81
2021/06/06 00:04:02;;;;;;;14.10;11.00;;;15.60;99.90;;;;;;5035958;28;20164;-80
2021/06/06 00:06:30;;;;;;;11.13;9.48;;;15.70;99.90;;;;;;5036176;28;20251;-80
2021/06/06 00:08:57;;;;;;;12.90;9.98;;;15.80;99.90;;;;;;5018518;28;20582;-80
2021/06/06 00:11:32;;;;;;;17.80;10.00;;;15.80;99.90;;;;;;5018341;28;20229;-80
2021/06/06 00:14:01;;;;;;;19.02;10.40;;;16.00;99.90;;;;;;5036202;28;20667;-80
2021/06/06 00:16:33;;;;;;;11.63;10.15;;;15.80;99.90;;;;;;5035615;28;20697;-81
2021/06/06 00:18:59;;;;;;;12.07;10.18;;;15.80;99.90;;;;;;5036075;28;20159;-81
2021/06/06 00:21:29;;;;;;;15.50;9.98;;;15.60;99.90;;;;;;5017667;28;20183;-80
2021/06/06 00:23:58;;;;;;;14.30;10.25;;;15.90;99.90;;;;;;5035485;28;20648;-81
2021/06/06 00:26:25;;;;;;;15.90;10.38;;;15.60;99.90;;;;;;5035282;28;20172;-81
2021/06/06 00:28:51;;;;;;;16.38;9.50;;;15.50;99.90;;;;;;5018137;28;20262;-82
2021/06/06 00:31:17;;;;;;;12.32;10.18;;;15.70;99.90;;;;;;5035481;28;20187;-82
2021/06/06 00:33:43;;;;;;;15.82;11.57;;;15.80;99.90;;;;;;5017451;28;20539;-81
2021/06/06 00:36:10;;;;;;;12.38;10.95;;;15.70;99.90;;;;;;5035317;28;20203;-81
2021/06/06 00:38:36;;;;;;;12.30;11.10;;;15.70;99.90;;;;;;5035228;28;20163;-82
2021/06/06 00:41:03;;;;;;;14.98;10.60;;;15.70;99.90;;;;;;5034647;28;20191;-81
2021/06/06 00:43:29;;;;;;;16.05;10.50;;;15.50;99.90;;;;;;5035491;28;20175;-81
2021/06/06 00:45:55;;;;;;;14.88;10.15;;;15.20;99.90;;;;;;5017591;28;20176;-81
2021/06/06 00:48:22;;;;;;;17.90;10.35;;;15.30;99.90;;;;;;5035253;28;20160;-81
2021/06/06 00:50:50;;;;;;;17.58;10.15;;;15.40;99.90;;;;;;5034225;28;20552;-81
2021/06/06 00:53:25;;;;;;;16.38;10.20;;;15.30;99.90;;;;;;5034939;28;20168;-81
2021/06/06 00:55:51;;;;;;;14.88;10.70;;;15.40;99.90;;;;;;5016869;28;20987;-81
2021/06/06 00:58:17;;;;;;;14.48;11.00;;;15.60;99.90;;;;;;5035079;28;20172;-81
2021/06/06 01:00:47;;;;;;;14.63;9.80;;;15.50;99.90;;;;;;5034800;28;20271;-81
2021/06/06 01:03:13;;;;;;;13.63;10.15;;;15.60;99.90;;;;;;5017001;28;20215;-80
2021/06/06 01:05:45;;;;;;;12.13;10.05;;;15.60;99.90;;;;;;5034985;28;20163;-81
2021/06/06 01:08:14;;;;;;;18.63;10.73;;;15.60;99.90;;;;;;5016489;28;20258;-81
2021/06/06 01:10:41;;;;;;;14.52;10.13;;;15.60;99.90;;;;;;5034665;28;20179;-81
2021/06/06 01:13:34;;;;;;;13.95;9.43;;;15.40;99.90;;;;;;5016838;28;20514;-81
2021/06/06 01:16:10;;;;;;;12.23;10.05;;;15.40;99.90;;;;;;5016795;28;20208;-80
2021/06/06 01:18:42;;;;;;;17.35;10.43;;;15.30;99.90;;;;;;5016459;28;20194;-81
2021/06/06 01:21:30;;;;;;;13.48;9.65;;;15.30;99.90;;;;;;5016670;28;20196;-80
2021/06/06 01:24:01;;;;;;;12.43;10.13;;;15.40;99.90;;;;;;5016689;28;20544;-80
2021/06/06 01:26:46;;;;;;;11.55;10.23;;;15.30;99.90;;;;;;5016636;28;20570;-81
2021/06/06 01:29:19;;;;;;;15.60;9.93;;;15.10;99.90;;;;;;5034225;28;20206;-83
2021/06/06 01:31:50;;;;;;;15.13;11.07;;;14.90;99.90;;;;;;5015572;28;20287;-81
2021/06/06 01:34:18;;;;;;;12.43;10.88;;;15.00;99.90;;;;;;5016550;28;20239;-82
2021/06/06 01:36:49;;;;;;;13.88;10.68;;;15.10;99.90;;;;;;5034807;28;20213;-80
2021/06/06 01:39:20;;;;;;;11.85;10.45;;;15.00;99.90;;;;;;5034628;28;20175;-80
2021/06/06 01:41:51;;;;;;;13.57;11.18;;;15.00;99.90;;;;;;5034533;28;20159;-81
2021/06/06 01:44:21;;;;;;;20.13;11.70;;;14.90;99.90;;;;;;5033910;28;20175;-80
2021/06/06 01:46:53;;;;;;;16.20;11.07;;;14.80;99.90;;;;;;5015730;28;20226;-80
2021/06/06 01:49:20;;;;;;;14.55;12.05;;;14.80;99.90;;;;;;5033867;28;20191;-82
2021/06/06 01:51:53;;;;;;;15.50;11.88;;;14.70;99.90;;;;;;5016207;28;20168;-80
2021/06/06 01:54:20;;;;;;;16.13;11.20;;;14.80;99.90;;;;;;5033603;28;20168;-80
2021/06/06 01:56:49;;;;;;;17.40;11.68;;;14.80;99.90;;;;;;5015758;28;20200;-80
2021/06/06 01:59:31;;;;;;;16.50;11.02;;;14.70;99.90;;;;;;5033633;28;20164;-81
2021/06/06 02:01:57;;;;;;;12.00;10.90;;;14.60;99.90;;;;;;5016139;28;20186;-80
2021/06/06 02:04:23;;;;;;;18.70;11.52;;;14.60;99.90;;;;;;5033944;28;20171;-83
2021/06/06 02:07:15;;;;;;;13.77;11.32;;;14.60;99.90;;;;;;5016761;28;20203;-82
2021/06/06 02:10:19;;;;;;;14.80;12.48;;;14.60;99.90;;;;;;5033437;28;20179;-81
2021/06/06 02:12:52;;;;;;;19.83;11.70;;;14.50;99.90;;;;;;5034007;28;20628;-83
2021/06/06 02:15:27;;;;;;;13.73;10.77;;;14.30;99.90;;;;;;5033561;28;20167;-81
2021/06/06 02:17:54;;;;;;;17.25;11.10;;;14.40;99.90;;;;;;5015800;28;20172;-83
2021/06/06 02:20:25;;;;;;;17.42;11.95;;;14.50;99.90;;;;;;5033582;28;20219;-82
2021/06/06 02:22:53;;;;;;;15.38;11.30;;;14.50;99.90;;;;;;5033664;28;20199;-83
2021/06/06 02:25:20;;;;;;;14.55;12.27;;;14.70;99.90;;;;;;5033377;28;20255;-83
2021/06/06 02:27:58;;;;;;;22.08;11.95;;;14.60;99.90;;;;;;5033418;28;20171;-83
2021/06/06 02:30:32;;;;;;;14.70;12.23;;;14.60;99.90;;;;;;5015991;28;20604;-83
2021/06/06 02:32:57;;;;;;;12.45;11.18;;;14.50;99.90;;;;;;5032126;28;20234;-81
2021/06/06 02:35:39;;;;;;;15.25;12.50;;;14.50;99.90;;;;;;5015690;28;20175;-82
2021/06/06 02:38:15;;;;;;;23.27;13.13;;;14.50;99.90;;;;;;5033245;28;20599;-81
2021/06/06 02:40:54;;;;;;;28.08;12.32;;;14.60;99.90;;;;;;5015428;28;20285;-80
2021/06/06 02:43:33;;;;;;;16.90;12.75;;;14.40;99.90;;;;;;5032624;28;20168;-82
2021/06/06 02:46:03;;;;;;;15.05;11.43;;;14.10;99.90;;;;;;5032797;28;20168;-80
2021/06/06 02:48:35;;;;;;;17.15;12.30;;;14.10;99.90;;;;;;5032584;28;20251;-81
2021/06/06 02:51:05;;;;;;;17.38;11.82;;;14.20;99.90;;;;;;5033086;28;20194;-82
2021/06/06 02:53:35;;;;;;;20.88;12.63;;;14.40;99.90;;;;;;5033111;28;20168;-81
2021/06/06 02:56:23;;;;;;;17.90;12.55;;;14.50;99.90;;;;;;5033359;28;20203;-82
2021/06/06 02:59:03;;;;;;;19.80;12.52;;;14.50;99.90;;;;;;5033022;28;20274;-81
2021/06/06 03:01:34;;;;;;;18.95;12.88;;;14.60;99.90;;;;;;5033276;28;20278;-81
2021/06/06 03:04:03;;;;;;;17.05;12.38;;;14.30;99.90;;;;;;5033145;28;20538;-81
2021/06/06 03:06:43;;;;;;;20.63;12.40;;;14.30;99.90;;;;;;5032790;28;20164;-79
2021/06/06 03:09:10;;;;;;;16.77;12.63;;;14.40;99.90;;;;;;5015002;28;20218;-81
2021/06/06 03:11:39;;;;;;;18.70;13.88;;;14.40;99.90;;;;;;5032510;28;20247;-80
2021/06/06 03:14:08;;;;;;;16.38;12.40;;;14.50;99.90;;;;;;5014723;28;20178;-80
2021/06/06 03:16:54;;;;;;;16.75;11.48;;;14.20;99.90;;;;;;5032472;28;20203;-81
2021/06/06 03:19:22;;;;;;;15.55;12.43;;;14.00;99.90;;;;;;5032492;28;20203;-80
2021/06/06 03:21:50;;;;;;;20.25;12.63;;;14.10;99.90;;;;;;5014890;28;20175;-79
2021/06/06 03:24:27;;;;;;;14.15;12.65;;;14.10;99.90;;;;;;5031601;28;20164;-84
2021/06/06 03:26:53;;;;;;;18.35;12.30;;;14.20;99.90;;;;;;5014753;28;20598;-81
2021/06/06 03:29:25;;;;;;;15.38;12.30;;;13.80;99.90;;;;;;5032647;28;20180;-80
2021/06/06 03:32:00;;;;;;;17.52;12.18;;;13.80;99.90;;;;;;5014901;28;20168;-81
2021/06/06 03:34:26;;;;;;;17.63;11.77;;;13.80;99.90;;;;;;5031816;28;20167;-81
2021/06/06 03:36:52;;;;;;;12.52;11.00;;;13.70;99.90;;;;;;5033074;28;20200;-81
2021/06/06 03:39:26;;;;;;;16.85;11.95;;;13.60;99.90;;;;;;5032151;28;20187;-81
2021/06/06 03:41:56;;;;;;;25.55;13.70;;;13.60;99.90;;;;;;5032246;28;20556;-82
2021/06/06 03:44:22;;;;;;;13.05;11.68;;;13.60;99.90;;;;;;5032381;28;20164;-81
2021/06/06 03:46:48;;;;;;;14.88;12.55;;;13.80;99.90;;;;;;5032826;28;20172;-81
2021/06/06 03:49:15;;;;;;;17.02;12.55;;;13.80;99.90;;;;;;5032810;28;20201;-81
2021/06/06 03:51:41;;;;;;;25.98;13.15;;;13.70;99.90;;;;;;5014477;28;20180;-82
2021/06/06 03:54:10;;;;;;;20.13;12.20;;;13.70;99.90;;;;;;5014494;28;20183;-82
2021/06/06 03:56:37;;;;;;;14.40;12.95;;;13.80;99.90;;;;;;5034852;28;20207;-80
2021/06/06 03:59:04;;;;;;;16.73;11.98;;;13.80;99.90;;;;;;5018256;28;20176;-80
2021/06/06 04:01:29;;;;;;;13.90;12.45;;;14.10;99.90;;;;;;5036270;28;20175;-80
2021/06/06 04:03:55;;;;;;;16.17;12.68;;;14.40;99.90;;;;;;5036066;28;20168;-80
2021/06/06 04:06:22;;;;;;;16.17;12.10;;;14.50;99.90;;;;;;5035970;28;20172;-81
2021/06/06 04:08:48;;;;;;;14.98;11.15;;;14.60;99.90;;;;;;5018374;28;20195;-80
2021/06/06 04:11:13;;;;;;;14.13;12.55;;;14.60;99.90;;;;;;5035844;28;20226;-80
2021/06/06 04:13:39;;;;;;;15.30;12.23;;;14.60;99.90;;;;;;5036001;28;20164;-81
2021/06/06 04:16:08;;;;;;;19.25;12.43;;;14.50;99.90;;;;;;5035954;28;20211;-82
2021/06/06 04:18:34;;;;;;;17.83;12.65;;;14.70;99.90;;;;;;5035864;28;20179;-81
2021/06/06 04:21:10;;;;;;;20.02;13.40;;;14.80;99.90;;;;;;5035989;28;20176;-81
2021/06/06 04:23:36;;;;;;;19.75;14.15;;;14.80;99.90;;;;;;5034457;28;20303;-81
2021/06/06 04:26:03;;;;;;;22.52;13.85;;;14.90;99.90;;;;;;5017824;28;20691;-80
2021/06/06 04:28:28;;;;;;;17.10;12.90;;;14.90;99.90;;;;;;5017766;28;20633;-82
2021/06/06 04:30:55;;;;;;;15.57;12.52;;;14.90;99.90;;;;;;5035302;28;20188;-81
2021/06/06 04:33:21;;;;;;;20.23;13.52;;;14.70;99.90;;;;;;5017765;28;20195;-82
2021/06/06 04:35:47;;;;;;;19.85;14.50;;;14.90;99.90;;;;;;5035210;28;20200;-81
2021/06/06 04:38:16;;;;;;;18.15;13.98;;;15.00;99.90;;;;;;5035602;28;20536;-81
2021/06/06 04:40:42;;;;;;;19.88;14.68;;;15.20;99.90;;;;;;5017032;28;20199;-80
2021/06/06 04:43:09;;;;;;;22.33;15.65;;;15.40;99.90;;;;;;5035266;28;20289;-80
2021/06/06 04:45:34;;;;;;;16.50;14.55;;;15.60;99.90;;;;;;5017460;28;20172;-81
2021/06/06 04:48:16;;;;;;;15.88;14.23;;;15.60;99.90;;;;;;5035637;28;20530;-80
2021/06/06 04:50:43;;;;;;;23.38;15.52;;;15.60;99.90;;;;;;5035464;28;20191;-80
2021/06/06 04:53:08;;;;;;;25.75;15.90;;;15.50;99.90;;;;;;5018167;28;20168;-80
2021/06/06 04:55:34;;;;;;;22.92;15.38;;;15.60;99.90;;;;;;5037420;28;20604;-82
2021/06/06 04:58:00;;;;;;;19.63;16.02;;;15.60;99.90;;;;;;5021216;28;20186;-81
2021/06/06 05:00:28;;;;;;;24.55;16.77;;;15.80;99.90;;;;;;5038413;28;20636;-79
2021/06/06 05:02:54;;;;;;;26.02;16.60;;;16.00;99.90;;;;;;5021064;28;20198;-80
2021/06/06 05:05:21;;;;;;;22.08;17.05;;;15.90;99.90;;;;;;5035950;28;20251;-81
2021/06/06 05:07:53;;;;;;;25.23;17.38;;;15.80;99.90;;;;;;5017395;28;20194;-80
2021/06/06 05:10:19;;;;;;;23.65;17.30;;;15.40;99.90;;;;;;5017822;28;20260;-81
2021/06/06 05:12:45;;;;;;;25.08;17.65;;;15.50;99.90;;;;;;5017097;28;20168;-80
2021/06/06 05:15:11;;;;;;;25.52;17.15;;;15.70;99.90;;;;;;5034635;28;20176;-81
2021/06/06 05:17:37;;;;;;;31.35;18.30;;;15.70;99.90;;;;;;5032912;28;20294;-81
2021/06/06 05:20:05;;;;;;;24.77;18.45;;;15.80;99.90;;;;;;5034473;28;20263;-82
2021/06/06 05:22:30;;;;;;;28.55;18.50;;;16.00;99.90;;;;;;5034110;28;20671;-81
2021/06/06 05:24:56;;;;;;;26.70;18.42;;;16.20;99.90;;;;;;5034059;28;20251;-83
2021/06/06 05:27:22;;;;;;;26.23;18.92;;;16.40;99.90;;;;;;5034190;28;20547;-82
2021/06/06 05:29:48;;;;;;;25.55;19.25;;;16.60;99.90;;;;;;5032214;28;20188;-82
2021/06/06 05:32:13;;;;;;;28.38;20.83;;;16.70;99.90;;;;;;5015979;28;20176;-82
2021/06/06 05:34:39;;;;;;;28.70;18.02;;;16.60;99.90;;;;;;5016210;28;20179;-83
2021/06/06 05:37:06;;;;;;;32.67;19.63;;;16.70;99.90;;;;;;5033920;28;20570;-82
2021/06/06 05:39:31;;;;;;;30.38;19.52;;;16.80;99.90;;;;;;5016324;28;20227;-83
2021/06/06 05:41:58;;;;;;;30.60;20.23;;;16.80;99.90;;;;;;5034034;28;20176;-82
2021/06/06 05:44:24;;;;;;;29.27;20.52;;;16.90;99.90;;;;;;5034072;28;20582;-83
2021/06/06 05:46:49;;;;;;;29.55;20.35;;;17.00;99.90;;;;;;5033522;28;20199;-82
2021/06/06 05:49:15;;;;;;;32.80;21.15;;;17.00;99.90;;;;;;5033599;28;20195;-82
2021/06/06 05:51:40;;;;;;;31.88;20.08;;;17.10;99.90;;;;;;5033690;28;20160;-81
2021/06/06 05:54:06;;;;;;;36.42;21.83;;;17.10;99.90;;;;;;5033845;28;20679;-82
2021/06/06 05:56:32;;;;;;;33.13;21.80;;;17.10;99.90;;;;;;5033358;28;20218;-82
2021/06/06 05:58:57;;;;;;;31.90;20.45;;;17.30;99.90;;;;;;5033608;28;20159;-83
2021/06/06 06:01:23;;;;;;;30.25;20.83;;;17.10;99.90;;;;;;5033778;28;20555;-82
2021/06/06 06:03:49;;;;;;;30.77;21.55;;;17.00;99.90;;;;;;5033407;28;20195;-82
2021/06/06 06:06:15;;;;;;;26.25;19.30;;;17.10;99.90;;;;;;5033515;28;20571;-82
2021/06/06 06:08:43;;;;;;;30.95;20.50;;;17.20;99.90;;;;;;5033763;28;20168;-82
2021/06/06 06:11:12;;;;;;;29.23;21.23;;;17.10;99.90;;;;;;5033230;28;20191;-82
2021/06/06 06:13:37;;;;;;;30.40;20.08;;;17.20;99.90;;;;;;5033450;28;20180;-82
2021/06/06 06:16:06;;;;;;;34.90;19.83;;;17.40;99.90;;;;;;5015340;28;20203;-81
2021/06/06 06:18:32;;;;;;;32.85;19.60;;;17.30;99.90;;;;;;5031560;28;20624;-80
2021/06/06 06:20:59;;;;;;;35.45;21.00;;;16.90;99.90;;;;;;5032939;28;20188;-81
2021/06/06 06:23:25;;;;;;;29.92;19.05;;;17.10;99.90;;;;;;5033353;28;20203;-80
2021/06/06 06:25:52;;;;;;;29.05;19.48;;;17.20;99.90;;;;;;5032798;28;20168;-81
2021/06/06 06:28:17;;;;;;;28.63;18.67;;;17.60;99.90;;;;;;5016239;28;20172;-85
2021/06/06 06:30:43;;;;;;;31.88;18.98;;;17.40;99.90;;;;;;5033167;28;20187;-84
2021/06/06 06:33:10;;;;;;;15.57;13.00;;;17.30;99.90;;;;;;5015430;28;20555;-84
2021/06/06 06:35:36;;;;;;;18.13;12.93;;;17.40;99.90;;;;;;5015519;28;20192;-85
2021/06/06 06:38:03;;;;;;;19.23;14.73;;;17.20;99.90;;;;;;5033401;28;20167;-85
2021/06/06 06:40:30;;;;;;;24.15;15.80;;;17.50;99.90;;;;;;5015526;28;20188;-81
2021/06/06 06:42:56;;;;;;;21.13;14.55;;;17.60;99.90;;;;;;5032993;28;20535;-81
2021/06/06 06:45:35;;;;;;;19.30;14.45;;;17.80;99.90;;;;;;5032490;28;20168;-81
2021/06/06 06:48:11;;;;;;;19.60;14.27;;;17.70;99.90;;;;;;5032968;28;20164;-82
2021/06/06 06:50:37;;;;;;;16.67;12.57;;;17.80;99.90;;;;;;5032580;28;20211;-82
2021/06/06 06:53:03;;;;;;;14.07;12.13;;;18.20;99.90;;;;;;5031277;28;20198;-82
2021/06/06 06:55:30;;;;;;;19.45;14.02;;;18.70;99.90;;;;;;5037802;28;20164;-81
2021/06/06 06:57:58;;;;;;;17.27;13.25;;;19.60;99.90;;;;;;5039731;28;20160;-81
2021/06/06 07:00:30;;;;;;;12.73;11.38;;;20.60;99.90;;;;;;5032163;28;20196;-81
2021/06/06 07:02:55;;;;;;;10.48;9.48;;;21.80;99.90;;;;;;5032480;28;20218;-80
2021/06/06 07:05:21;;;;;;;11.68;8.75;;;21.70;99.90;;;;;;5032545;28;20183;-81
2021/06/06 07:07:47;;;;;;;10.38;9.38;;;22.10;99.90;;;;;;5032281;28;20167;-82
2021/06/06 07:10:17;;;;;;;9.68;8.77;;;22.50;99.90;;;;;;5032261;28;20704;-82
2021/06/06 07:12:42;;;;;;;11.05;10.05;;;22.30;99.90;;;;;;5032232;28;20178;-81
2021/06/06 07:15:13;;;;;;;9.38;7.28;;;22.30;99.90;;;;;;5032225;28;20172;-82
2021/06/06 07:17:39;;;;;;;8.98;8.10;;;22.30;99.90;;;;;;5014536;28;20614;-87
2021/06/06 07:20:09;;;;;;;7.93;7.22;;;21.30;99.90;;;;;;5014686;28;20195;-85
2021/06/06 07:22:35;;;;;;;8.57;7.60;;;22.60;99.90;;;;;;5032438;28;20179;-84
2021/06/06 07:25:00;;;;;;;8.88;8.07;;;23.90;99.90;;;;;;5032778;28;20507;-82
2021/06/06 07:27:27;;;;;;;11.52;8.02;;;24.30;99.90;;;;;;5033502;28;20211;-84
2021/06/06 07:29:53;;;;;;;9.30;7.95;;;24.00;99.90;;;;;;5014842;28;20557;-82
2021/06/06 07:32:23;;;;;;;9.45;8.65;;;24.30;99.90;;;;;;5036159;28;20181;-83
2021/06/06 07:34:49;;;;;;;8.57;7.82;;;25.70;99.90;;;;;;5036240;28;20226;-81
2021/06/06 07:37:15;;;;;;;12.40;6.32;;;26.20;99.90;;;;;;5017862;28;20629;-81
2021/06/06 07:39:43;;;;;;;6.82;6.13;;;24.60;99.90;;;;;;5036021;28;20644;-83
2021/06/06 07:42:10;;;;;;;8.80;5.72;;;23.80;99.90;;;;;;5028068;28;20202;-96
2021/06/06 07:44:37;;;;;;;5.35;4.82;;;24.20;99.90;;;;;;5024790;28;20184;-95
2021/06/06 07:47:07;;;;;;;5.97;5.22;;;23.90;99.90;;;;;;5021702;28;20302;-95
2021/06/06 07:49:42;;;;;;;5.90;5.40;;;23.70;99.90;;;;;;5023203;28;20333;-96
2021/06/06 07:52:09;;;;;;;5.75;5.18;;;22.90;99.90;;;;;;5021844;28;20164;-94
2021/06/06 07:54:35;;;;;;;7.43;5.43;;;22.10;99.90;;;;;;5025369;28;20251;-95
2021/06/06 07:57:02;;;;;;;6.30;5.80;;;22.10;99.90;;;;;;5020958;28;20171;-94
2021/06/06 07:59:29;;;;;;;8.32;6.32;;;21.30;99.90;;;;;;5022361;28;20202;-94
2021/06/06 08:01:55;;;;;;;6.72;5.70;;;21.10;99.90;;;;;;5021639;28;20172;-94
2021/06/06 08:04:23;;;;;;;6.63;6.05;;;21.00;99.90;;;;;;5006919;28;20207;-94
2021/06/06 08:07:07;;;;;;;7.18;6.40;;;20.70;99.90;;;;;;5031490;28;20192;-93
2021/06/06 08:09:53;;;;;;;6.95;6.35;;;20.50;99.90;;;;;;5028736;28;20199;-96
2021/06/06 08:12:44;;;;;;;8.55;5.45;;;20.20;99.90;;;;;;5039273;28;20168;-92
2021/06/06 08:15:11;;;;;;;7.88;7.10;;;20.30;99.90;;;;;;4999248;28;20190;-95
2021/06/06 08:17:40;;;;;;;7.63;6.80;;;20.30;99.90;;;;;;5048390;22;20297;-94
2021/06/06 08:20:10;;;;;;;8.68;7.88;;;19.80;99.90;;;;;;5082463;28;20232;-86
2021/06/06 08:22:36;;;;;;;7.57;6.88;;;19.40;99.90;;;;;;5096273;28;20154;-85
2021/06/06 08:25:08;;;;;;;9.90;7.25;;;19.60;99.90;;;;;;5078332;28;20170;-86
2021/06/06 08:27:35;;;;;;;10.20;7.78;;;19.70;99.90;;;;;;5076978;28;20715;-85
2021/06/06 08:30:03;;;;;;;11.20;7.72;;;19.70;99.90;;;;;;5077520;28;20239;-84
2021/06/06 08:32:28;;;;;;;9.68;8.23;;;19.90;99.90;;;;;;5077901;28;20227;-83
2021/06/06 08:34:54;;;;;;;9.07;8.25;;;20.10;99.90;;;;;;5096645;28;20170;-85
2021/06/06 08:37:20;;;;;;;14.85;9.27;;;20.20;99.90;;;;;;5077347;28;20181;-84
2021/06/06 08:39:46;;;;;;;11.57;7.75;;;20.20;99.90;;;;;;5078240;28;20661;-84
2021/06/06 08:42:25;;;;;;;8.60;7.65;;;20.10;99.90;;;;;;5077907;28;20170;-86
2021/06/06 08:45:05;;;;;;;8.52;7.82;;;20.00;99.90;;;;;;5078646;28;20161;-86
2021/06/06 08:47:32;;;;;;;8.00;7.20;;;20.20;99.90;;;;;;5079286;28;20215;-85
2021/06/06 08:50:05;;;;;;;9.93;7.00;;;20.20;99.90;;;;;;5078617;28;20603;-84
2021/06/06 08:52:53;;;;;;;7.80;6.82;;;20.10;99.90;;;;;;5078449;28;20170;-87
2021/06/06 08:55:37;;;;;;;8.70;6.53;;;20.10;99.90;;;;;;5078324;28;20165;-86
2021/06/06 08:58:28;;;;;;;7.55;6.85;;;20.20;99.90;;;;;;5095609;28;20283;-85
2021/06/06 09:01:00;;;;;;;9.60;8.15;;;20.60;99.90;;;;;;5077756;28;20206;-83
2021/06/06 09:03:29;;;;;;;9.05;7.63;;;20.50;99.90;;;;;;5077748;28;20200;-86
2021/06/06 09:06:05;;;;;;;7.47;6.78;;;20.70;99.90;;;;;;5096178;28;20589;-85
2021/06/06 09:08:38;;;;;;;10.85;7.50;;;21.00;99.90;;;;;;5078181;28;20265;-86
2021/06/06 09:11:08;;;;;;;9.88;7.28;;;21.10;99.90;;;;;;5077710;28;20239;-85
2021/06/06 09:13:34;;;;;;;8.55;7.68;;;20.80;99.90;;;;;;5094755;28;20253;-85
2021/06/06 09:16:22;;;;;;;9.90;7.95;;;20.60;99.90;;;;;;5077133;28;20261;-85
2021/06/06 09:19:00;;;;;;;8.85;7.97;;;20.40;99.90;;;;;;5076739;28;20189;-85
2021/06/06 09:21:26;;;;;;;7.90;7.03;;;20.90;99.90;;;;;;5077860;28;20166;-86
2021/06/06 09:24:04;;;;;;;7.30;5.88;;;21.00;99.90;;;;;;5078256;28;20188;-84
2021/06/06 09:26:31;;;;;;;8.07;5.00;;;21.00;99.90;;;;;;5077386;28;20255;-83
2021/06/06 09:29:05;;;;;;;6.00;5.43;;;21.20;99.90;;;;;;5095567;28;20216;-85
2021/06/06 09:31:31;;;;;;;6.50;5.63;;;21.00;99.90;;;;;;5095362;28;20634;-86
2021/06/06 09:34:00;;;;;;;8.93;5.47;;;20.90;99.90;;;;;;5077379;28;20170;-85
2021/06/06 09:36:28;;;;;;;7.50;4.90;;;20.70;99.90;;;;;;5076905;28;20178;-86
2021/06/06 09:39:03;;;;;;;5.68;5.22;;;20.80;99.90;;;;;;5076294;28;20170;-86
2021/06/06 09:41:37;;;;;;;7.32;6.72;;;20.80;99.90;;;;;;5096429;28;20188;-87
2021/06/06 09:44:29;;;;;;;6.65;5.35;;;21.40;99.90;;;;;;5078661;28;20172;-86
2021/06/06 09:47:04;;;;;;;5.82;5.32;;;21.60;99.90;;;;;;5078531;28;20212;-86
2021/06/06 09:49:46;;;;;;;9.02;5.38;;;21.90;99.90;;;;;;5097624;28;20207;-86
2021/06/06 09:52:41;;;;;;;8.05;5.20;;;22.10;99.90;;;;;;5080316;28;20692;-88
2021/06/06 09:55:28;;;;;;;5.07;4.68;;;22.40;99.90;;;;;;5080155;28;20170;-86
2021/06/06 09:58:09;;;;;;;6.38;5.78;;;22.30;99.90;;;;;;5078164;28;20169;-86
2021/06/06 10:00:38;;;;;;;8.40;5.90;;;22.30;99.90;;;;;;5078951;28;20213;-86
2021/06/06 10:03:26;;;;;;;6.30;5.35;;;22.50;99.90;;;;;;5095311;28;20161;-86
2021/06/06 10:05:57;;;;;;;5.13;4.63;;;22.20;99.90;;;;;;5076638;28;20209;-86
2021/06/06 10:08:28;;;;;;;5.80;5.28;;;22.10;99.90;;;;;;5075494;28;20169;-84
2021/06/06 10:11:16;;;;;;;8.80;5.32;;;22.00;99.90;;;;;;5093839;28;20205;-86
2021/06/06 10:13:49;;;;;;;5.50;5.00;;;21.80;99.90;;;;;;5075408;28;20196;-84
2021/06/06 10:16:18;;;;;;;6.47;5.40;;;21.60;99.90;;;;;;5075989;28;20169;-85
2021/06/06 10:18:52;;;;;;;5.90;5.40;;;21.30;99.90;;;;;;5076127;28;20170;-84
2021/06/06 10:21:22;;;;;;;6.10;5.60;;;21.00;99.90;;;;;;5093555;28;20188;-84
2021/06/06 10:23:54;;;;;;;8.77;5.18;;;20.90;99.90;;;;;;5075797;28;20165;-85
2021/06/06 10:26:51;;;;;;;6.00;4.00;;;21.30;99.90;;;;;;5072397;28;20202;-85
2021/06/06 10:29:23;;;;;;;5.03;4.20;;;21.50;99.90;;;;;;5072969;28;20565;-83
2021/06/06 10:31:50;;;;;;;16.85;3.88;;;21.50;99.90;;;;;;5074703;28;20176;-83
2021/06/06 10:34:22;;;;;;;4.75;4.35;;;21.70;99.90;;;;;;5093677;28;20621;-85
2021/06/06 10:36:48;;;;;;;4.68;4.28;;;21.50;99.90;;;;;;5076453;28;20173;-82
2021/06/06 10:39:22;;;;;;;6.93;4.97;;;21.60;99.90;;;;;;5094673;28;20158;-84
2021/06/06 10:41:59;;;;;;;4.95;4.53;;;21.90;99.90;;;;;;5093573;28;20176;-83
2021/06/06 10:44:28;;;;;;;4.35;3.45;;;21.90;99.90;;;;;;5075659;28;20334;-83
2021/06/06 10:47:19;;;;;;;4.90;3.80;;;21.80;99.90;;;;;;5074845;28;20676;-82
2021/06/06 10:50:03;;;;;;;4.47;4.00;;;21.80;99.90;;;;;;5090789;28;20192;-82
2021/06/06 10:52:40;;;;;;;5.28;4.60;;;21.70;99.90;;;;;;5092662;28;20193;-81
2021/06/06 10:55:29;;;;;;;4.38;3.97;;;21.90;99.90;;;;;;5074462;28;20248;-81
2021/06/06 10:58:09;;;;;;;4.72;4.32;;;21.90;99.90;;;;;;5092648;28;20204;-80
2021/06/06 11:00:39;;;;;;;5.35;3.72;;;22.10;99.90;;;;;;5092044;28;20421;-80
2021/06/06 11:03:27;;;;;;;5.13;4.18;;;22.30;99.90;;;;;;5092654;28;20170;-80
2021/06/06 11:05:59;;;;;;;4.88;3.92;;;22.20;99.90;;;;;;5091481;28;20210;-81
2021/06/06 11:08:27;;;;;;;5.38;4.82;;;22.40;99.90;;;;;;5092842;28;20166;-82
2021/06/06 11:10:58;;;;;;;4.30;3.88;;;22.30;99.90;;;;;;5092485;28;20216;-81
2021/06/06 11:13:37;;;;;;;7.53;4.72;;;22.30;99.90;;;;;;5092874;28;20295;-82
2021/06/06 11:16:19;;;;;;;5.88;5.22;;;22.00;99.90;;;;;;5074287;28;20180;-81
2021/06/06 11:18:58;;;;;;;3.42;3.13;;;22.00;99.90;;;;;;5092408;28;20653;-81
2021/06/06 11:21:44;;;;;;;3.28;2.97;;;22.00;99.90;;;;;;5092281;28;20165;-81
2021/06/06 11:24:39;;;;;;;2.67;2.47;;;22.10;99.90;;;;;;5092436;28;20196;-80
2021/06/06 11:27:29;;;;;;;3.45;3.13;;;22.30;99.90;;;;;;5076028;28;20222;-81
2021/06/06 11:30:21;;;;;;;3.78;3.47;;;22.40;99.90;;;;;;5075037;28;20186;-81
2021/06/06 11:33:02;;;;;;;3.88;2.88;;;22.30;99.90;;;;;;5092724;28;20212;-81
2021/06/06 11:35:33;;;;;;;4.00;3.60;;;22.20;99.90;;;;;;5092482;28;20164;-81
2021/06/06 11:38:15;;;;;;;3.17;2.80;;;22.30;99.90;;;;;;5092080;28;20172;-81
2021/06/06 11:40:49;;;;;;;2.90;2.60;;;22.40;99.90;;;;;;5092042;28;20646;-81
2021/06/06 11:43:29;;;;;;;2.53;2.33;;;22.30;99.90;;;;;;5092232;28;20199;-82
2021/06/06 11:46:09;;;;;;;2.30;2.10;;;22.10;99.90;;;;;;5091873;28;20282;-81
2021/06/06 11:48:44;;;;;;;3.35;3.13;;;22.00;99.90;;;;;;5092456;28;20201;-82
2021/06/06 11:51:23;;;;;;;4.32;3.92;;;21.90;99.90;;;;;;5092935;28;20185;-81
2021/06/06 11:53:48;;;;;;;1.60;1.50;;;21.90;99.90;;;;;;5073613;28;20173;-81
2021/06/06 11:56:24;;;;;;;2.75;1.48;;;22.00;99.90;;;;;;5092072;28;20252;-82
2021/06/06 11:59:17;;;;;;;2.08;1.92;;;22.00;99.90;;;;;;5092269;28;20164;-81
2021/06/06 12:01:58;;;;;;;2.45;1.52;;;21.90;99.90;;;;;;5092498;28;20177;-82
2021/06/06 12:04:28;;;;;;;3.15;2.33;;;22.10;99.90;;;;;;5074282;28;20161;-80
2021/06/06 12:06:53;;;;;;;1.48;1.38;;;22.20;99.90;;;;;;5092600;28;20285;-80
2021/06/06 12:09:25;;;;;;;2.72;1.38;;;22.20;99.90;;;;;;5092155;28;20607;-80
2021/06/06 12:11:52;;;;;;;3.03;1.08;;;22.00;99.90;;;;;;5092415;28;20249;-81
2021/06/06 12:14:29;;;;;;;2.33;1.38;;;22.20;99.90;;;;;;5092170;28;20556;-82
2021/06/06 12:16:59;;;;;;;1.45;1.30;;;22.30;99.90;;;;;;5075908;28;20173;-81
2021/06/06 12:19:38;;;;;;;2.15;0.88;;;22.50;99.90;;;;;;5095544;28;20224;-81
2021/06/06 12:22:26;;;;;;;1.90;1.30;;;22.40;99.90;;;;;;5096122;28;20524;-81
2021/06/06 12:24:58;;;;;;;3.78;1.50;;;22.10;99.90;;;;;;5096203;28;20190;-81
2021/06/06 12:27:30;;;;;;;1.38;0.95;;;22.00;99.90;;;;;;5096241;28;20707;-82
2021/06/06 12:29:58;;;;;;;4.43;1.05;;;22.10;99.90;;;;;;5098065;28;20259;-81
2021/06/06 12:32:29;;;;;;;0.75;0.75;;;22.20;99.90;;;;;;5099702;28;20636;-80
2021/06/06 12:34:55;;;;;;;2.22;1.20;;;22.20;99.90;;;;;;5098743;28;20169;-80
2021/06/06 12:37:27;;;;;;;3.22;1.40;;;22.40;99.90;;;;;;5098976;28;20614;-81
2021/06/06 12:39:55;;;;;;;1.00;0.90;;;22.30;99.90;;;;;;5079647;28;20190;-81
2021/06/06 12:42:23;;;;;;;1.00;0.75;;;22.40;99.90;;;;;;5080110;28;20158;-81
2021/06/06 12:44:51;;;;;;;0.50;0.50;;;22.40;99.90;;;;;;5097997;28;20166;-81
2021/06/06 12:47:37;;;;;;;0.60;0.60;;;22.50;99.90;;;;;;5078909;28;20212;-81
2021/06/06 12:50:05;;;;;;;0.50;0.50;;;22.50;99.90;;;;;;5095104;28;20194;-81
2021/06/06 12:52:36;;;;;;;0.50;0.50;;;22.40;99.90;;;;;;5095029;28;20165;-83
2021/06/06 12:55:19;;;;;;;0.55;0.55;;;22.50;99.90;;;;;;5095035;28;20162;-82
2021/06/06 12:57:54;;;;;;;3.60;0.93;;;22.30;99.90;;;;;;5095124;28;20266;-82